Time;durP1;ratioP1;P1;durP2;ratioP2;P2;SDS_P1;SDS_P2;PMS_P1;PMS_P2;Temp;Humidity;BMP_temperature;BMP_pressure;BME280_temperature;BME280_humidity;BME280_pressure;Samples;Min_cycle;Max_cycle;Signal;HPM_P1;HPM_P2
2023/01/07 00:00:49;;;;;;;8.32;7.50;;;;;;;;;;5020228;28;20044;-74
2023/01/07 00:03:15;;;;;;;8.45;7.65;;;;;;;;;;5015270;28;20132;-74
2023/01/07 00:05:42;;;;;;;7.88;7.32;;;;;;;;;;5025143;28;20029;-74
2023/01/07 00:08:08;;;;;;;8.05;7.35;;;;;;;;;;5021866;28;20088;-75
2023/01/07 00:10:33;;;;;;;7.55;7.05;;;;;;;;;;5015300;28;20034;-76
2023/01/07 00:12:59;;;;;;;7.93;7.43;;;;;;;;;;5014746;28;20116;-75
2023/01/07 00:15:25;;;;;;;7.93;7.43;;;;;;;;;;5018628;28;20132;-75
2023/01/07 00:17:51;;;;;;;7.40;6.90;;;;;;;;;;5019418;28;20117;-75
2023/01/07 00:20:16;;;;;;;7.78;7.28;;;;;;;;;;5017762;28;20040;-76
2023/01/07 00:22:42;;;;;;;7.80;7.20;;;;;;;;;;5015395;28;20028;-76
2023/01/07 00:25:08;;;;;;;8.40;7.70;;;;;;;;;;5024242;28;20040;-74
2023/01/07 00:27:33;;;;;;;8.10;7.50;;;;;;;;;;5031381;28;20088;-74
2023/01/07 00:29:59;;;;;;;8.55;7.85;;;;;;;;;;5019300;28;20412;-75
2023/01/07 00:32:52;;;;;;;7.88;7.28;;;;;;;;;;5020456;28;20408;-75
2023/01/07 00:35:20;;;;;;;7.82;7.25;;;;;;;;;;5040504;28;20037;-75
2023/01/07 00:37:48;;;;;;;12.52;9.45;;;;;;;;;;5020997;28;20037;-75
2023/01/07 00:40:14;;;;;;;13.37;9.63;;;;;;;;;;5019989;28;20096;-75
2023/01/07 00:42:56;;;;;;;14.45;9.98;;;;;;;;;;5023272;28;20033;-75
2023/01/07 00:45:24;;;;;;;10.38;9.23;;;;;;;;;;5022684;28;20041;-75
2023/01/07 00:47:53;;;;;;;12.43;9.43;;;;;;;;;;5014167;28;20034;-75
2023/01/07 00:50:19;;;;;;;;;;;;;;;;;;5019056;28;20112;-75
2023/01/07 00:52:45;;;;;;;10.07;9.00;;;;;;;;;;5018406;28;19925;-74
2023/01/07 00:55:11;;;;;;;10.43;8.73;;;;;;;;;;5022025;28;20037;-74
2023/01/07 00:57:36;;;;;;;10.52;9.25;;;;;;;;;;5033616;28;20037;-74
2023/01/07 01:00:02;;;;;;;10.95;8.57;;;;;;;;;;5019806;28;20033;-75
2023/01/07 01:02:28;;;;;;;9.68;8.73;;;;;;;;;;5021861;28;20037;-75
2023/01/07 01:04:53;;;;;;;8.98;8.27;;;;;;;;;;5014675;28;20505;-74
2023/01/07 01:07:19;;;;;;;9.35;8.48;;;;;;;;;;5014113;28;20448;-75
2023/01/07 01:09:44;;;;;;;8.90;8.10;;;;;;;;;;5019789;28;20696;-74
2023/01/07 01:12:10;;;;;;;8.55;7.80;;;;;;;;;;5021181;28;20688;-75
2023/01/07 01:14:36;;;;;;;8.40;7.70;;;;;;;;;;5010799;28;20065;-75
2023/01/07 01:17:01;;;;;;;8.60;7.90;;;;;;;;;;5016426;28;20033;-75
2023/01/07 01:19:29;;;;;;;8.45;7.85;;;;;;;;;;5017981;28;20128;-75
2023/01/07 01:21:54;;;;;;;8.18;7.53;;;;;;;;;;5015417;28;20318;-75
2023/01/07 01:24:20;;;;;;;8.80;8.18;;;;;;;;;;5012081;28;20045;-75
2023/01/07 01:26:45;;;;;;;8.52;7.97;;;;;;;;;;5015092;28;20048;-75
2023/01/07 01:29:11;;;;;;;8.35;7.75;;;;;;;;;;5020099;28;20125;-75
2023/01/07 01:31:37;;;;;;;7.95;7.45;;;;;;;;;;5015981;28;20096;-74
2023/01/07 01:34:03;;;;;;;8.00;7.45;;;;;;;;;;5008929;28;20036;-74
2023/01/07 01:36:29;;;;;;;8.75;8.15;;;;;;;;;;5016035;28;20029;-75
2023/01/07 01:38:57;;;;;;;8.07;7.38;;;;;;;;;;5014163;28;20061;-75
2023/01/07 01:41:23;;;;;;;8.20;7.60;;;;;;;;;;5011311;28;20053;-74
2023/01/07 01:43:51;;;;;;;8.18;7.57;;;;;;;;;;5024236;28;20509;-74
2023/01/07 01:46:37;;;;;;;8.35;7.75;;;;;;;;;;5018066;28;20033;-74
2023/01/07 01:49:20;;;;;;;7.50;7.00;;;;;;;;;;5013304;28;20038;-74
2023/01/07 01:51:57;;;;;;;8.55;7.95;;;;;;;;;;5013190;28;20037;-75
2023/01/07 01:54:24;;;;;;;9.75;8.85;;;;;;;;;;5017652;28;20038;-75
2023/01/07 01:56:57;;;;;;;9.77;8.82;;;;;;;;;;5023786;28;20042;-75
2023/01/07 01:59:26;;;;;;;9.85;8.95;;;;;;;;;;5020214;28;20034;-74
2023/01/07 02:01:54;;;;;;;9.00;8.20;;;;;;;;;;5017041;28;20042;-74
2023/01/07 02:04:22;;;;;;;8.95;8.25;;;;;;;;;;5019133;28;20034;-74
2023/01/07 02:06:53;;;;;;;8.25;7.75;;;;;;;;;;5028895;28;20100;-74
2023/01/07 02:09:19;;;;;;;8.60;8.00;;;;;;;;;;5019460;28;20600;-74
2023/01/07 02:11:57;;;;;;;9.45;8.30;;;;;;;;;;5011718;28;20064;-74
2023/01/07 02:14:53;;;;;;;9.48;8.48;;;;;;;;;;5020755;28;20056;-74
2023/01/07 02:17:32;;;;;;;8.38;7.78;;;;;;;;;;5018365;28;20033;-74
2023/01/07 02:20:17;;;;;;;9.35;8.65;;;;;;;;;;5024058;28;20257;-74
2023/01/07 02:23:01;;;;;;;9.10;8.35;;;;;;;;;;5021817;28;20038;-74
2023/01/07 02:25:48;;;;;;;9.25;8.52;;;;;;;;;;5024024;28;20076;-75
2023/01/07 02:28:32;;;;;;;9.05;8.35;;;;;;;;;;5039502;28;20692;-75
2023/01/07 02:31:35;;;;;;;9.15;8.45;;;;;;;;;;5024079;28;20316;-75
2023/01/07 02:34:38;;;;;;;9.30;8.60;;;;;;;;;;5019166;28;20114;-75
2023/01/07 02:37:24;;;;;;;9.32;8.55;;;;;;;;;;5021731;28;20042;-75
2023/01/07 02:40:13;;;;;;;9.10;8.40;;;;;;;;;;5017662;28;20032;-75
2023/01/07 02:42:41;;;;;;;;;;;;;;;;;;5023200;28;20038;-75
2023/01/07 02:45:15;;;;;;;9.27;8.48;;;;;;;;;;5021703;28;19944;-75
2023/01/07 02:47:50;;;;;;;9.50;8.70;;;;;;;;;;5017405;28;20037;-75
2023/01/07 02:50:15;;;;;;;8.73;8.13;;;;;;;;;;5017036;28;20044;-75
2023/01/07 02:52:41;;;;;;;8.65;8.05;;;;;;;;;;5019186;28;20053;-75
2023/01/07 02:55:14;;;;;;;9.50;8.80;;;;;;;;;;5024794;28;20472;-75
2023/01/07 02:58:03;;;;;;;9.85;8.70;;;;;;;;;;5023140;28;20029;-75
2023/01/07 03:00:52;;;;;;;9.18;8.40;;;;;;;;;;5018129;28;20037;-75
2023/01/07 03:03:42;;;;;;;10.68;9.52;;;;;;;;;;5019046;28;20037;-75
2023/01/07 03:06:17;;;;;;;9.80;8.93;;;;;;;;;;5014151;28;20030;-75
2023/01/07 03:09:01;;;;;;;9.75;9.05;;;;;;;;;;5012958;28;20038;-75
2023/01/07 03:11:37;;;;;;;10.68;9.60;;;;;;;;;;5033157;28;20049;-75
2023/01/07 03:14:23;;;;;;;10.50;9.57;;;;;;;;;;5013513;28;20105;-75
2023/01/07 03:17:04;;;;;;;9.73;9.00;;;;;;;;;;5012875;28;20452;-75
2023/01/07 03:19:33;;;;;;;9.70;8.90;;;;;;;;;;5016347;28;20472;-75
2023/01/07 03:22:04;;;;;;;9.85;9.15;;;;;;;;;;5019047;28;20515;-75
2023/01/07 03:24:31;;;;;;;9.95;9.13;;;;;;;;;;5020604;28;20045;-75
2023/01/07 03:26:58;;;;;;;9.60;8.55;;;;;;;;;;5013592;28;20501;-75
2023/01/07 03:29:24;;;;;;;9.43;8.80;;;;;;;;;;5017816;28;20042;-75
2023/01/07 03:32:24;;;;;;;10.05;9.23;;;;;;;;;;5019419;28;20040;-75
2023/01/07 03:34:50;;;;;;;9.80;9.10;;;;;;;;;;5017372;28;20493;-76
2023/01/07 03:37:19;;;;;;;9.70;8.75;;;;;;;;;;5017349;28;20061;-76
2023/01/07 03:39:46;;;;;;;;;;;;;;;;;;5020272;28;20040;-76
2023/01/07 03:44:58;;;;;;;8.95;8.25;;;;;;;;;;5008870;28;20045;-75
2023/01/07 03:47:27;;;;;;;9.23;8.50;;;;;;;;;;5025616;28;20049;-75
2023/01/07 03:49:53;;;;;;;9.65;8.95;;;;;;;;;;5017066;28;20045;-75
2023/01/07 03:52:18;;;;;;;9.65;8.95;;;;;;;;;;5011955;28;20095;-75
2023/01/07 03:54:44;;;;;;;10.07;9.18;;;;;;;;;;5013287;28;20030;-75
2023/01/07 03:57:10;;;;;;;9.35;8.65;;;;;;;;;;5025618;28;20029;-75
2023/01/07 03:59:35;;;;;;;9.75;8.82;;;;;;;;;;5015378;28;20038;-75
2023/01/07 04:02:03;;;;;;;8.85;8.15;;;;;;;;;;5014628;28;20033;-75
2023/01/07 04:04:31;;;;;;;10.18;8.68;;;;;;;;;;5011948;28;20045;-75
2023/01/07 04:06:57;;;;;;;9.77;8.98;;;;;;;;;;5017030;28;20047;-75
2023/01/07 04:09:24;;;;;;;9.65;8.95;;;;;;;;;;5020407;28;20601;-75
2023/01/07 04:11:50;;;;;;;9.43;8.68;;;;;;;;;;5016555;28;20041;-75
2023/01/07 04:14:16;;;;;;;8.65;8.05;;;;;;;;;;5021908;28;20083;-75
2023/01/07 04:16:42;;;;;;;8.43;7.93;;;;;;;;;;5015359;28;20037;-74
2023/01/07 04:19:08;;;;;;;8.52;7.93;;;;;;;;;;5011665;28;20041;-75
2023/01/07 04:21:33;;;;;;;8.73;8.02;;;;;;;;;;5018909;28;20033;-75
2023/01/07 04:24:00;;;;;;;8.70;7.63;;;;;;;;;;5019008;28;20056;-75
2023/01/07 04:26:26;;;;;;;9.00;8.20;;;;;;;;;;5015124;28;20068;-74
2023/01/07 04:28:51;;;;;;;11.52;8.00;;;;;;;;;;5014634;28;20048;-75
2023/01/07 04:31:17;;;;;;;8.50;7.90;;;;;;;;;;5018108;28;20029;-75
2023/01/07 04:33:43;;;;;;;8.95;8.35;;;;;;;;;;5020544;28;20045;-75
2023/01/07 04:36:10;;;;;;;9.07;8.45;;;;;;;;;;5012627;28;20100;-74
2023/01/07 04:38:36;;;;;;;9.52;8.73;;;;;;;;;;5012740;28;20033;-75
2023/01/07 04:41:01;;;;;;;8.63;8.02;;;;;;;;;;5026551;28;20104;-75
2023/01/07 04:43:27;;;;;;;9.90;9.07;;;;;;;;;;5019987;28;20060;-75
2023/01/07 04:45:53;;;;;;;9.85;9.05;;;;;;;;;;5014437;28;20064;-75
2023/01/07 04:48:19;;;;;;;9.55;8.73;;;;;;;;;;5035655;28;20030;-75
2023/01/07 04:50:47;;;;;;;10.00;9.20;;;;;;;;;;5024103;28;20057;-75
2023/01/07 04:53:14;;;;;;;9.45;8.65;;;;;;;;;;5009916;28;20033;-75
2023/01/07 04:55:40;;;;;;;7.90;7.28;;;;;;;;;;5026470;28;20370;-75
2023/01/07 04:58:06;;;;;;;8.98;8.27;;;;;;;;;;5015153;28;20044;-74
2023/01/07 05:00:31;;;;;;;8.02;7.43;;;;;;;;;;5014813;28;20038;-75
2023/01/07 05:02:57;;;;;;;7.90;7.40;;;;;;;;;;5014654;28;20033;-74
2023/01/07 05:05:23;;;;;;;7.68;7.18;;;;;;;;;;5013983;28;20503;-75
2023/01/07 05:07:48;;;;;;;9.73;9.02;;;;;;;;;;5010426;28;20045;-75
2023/01/07 05:10:15;;;;;;;8.65;8.10;;;;;;;;;;5031088;28;20033;-74
2023/01/07 05:12:41;;;;;;;8.45;7.85;;;;;;;;;;5016819;28;20125;-75
2023/01/07 05:15:09;;;;;;;8.23;7.65;;;;;;;;;;5014991;28;20515;-74
2023/01/07 05:17:38;;;;;;;7.93;7.40;;;;;;;;;;5017678;28;20103;-75
2023/01/07 05:20:06;;;;;;;7.70;7.20;;;;;;;;;;5017879;28;20029;-75
2023/01/07 05:22:33;;;;;;;9.25;8.25;;;;;;;;;;5015029;28;20029;-75
2023/01/07 05:24:59;;;;;;;8.73;8.13;;;;;;;;;;5021904;28;20087;-75
2023/01/07 05:27:26;;;;;;;10.60;9.50;;;;;;;;;;5014390;28;20048;-74
2023/01/07 05:29:51;;;;;;;9.10;8.40;;;;;;;;;;5017735;28;20038;-75
2023/01/07 05:32:17;;;;;;;8.45;7.78;;;;;;;;;;5014659;28;20034;-75
2023/01/07 05:34:43;;;;;;;8.43;7.90;;;;;;;;;;5012284;28;20034;-75
2023/01/07 05:37:08;;;;;;;9.90;9.18;;;;;;;;;;5009785;28;20086;-75
2023/01/07 05:39:34;;;;;;;8.93;8.25;;;;;;;;;;5015099;28;20038;-75
2023/01/07 05:42:03;;;;;;;8.20;7.70;;;;;;;;;;5014167;28;20030;-74
2023/01/07 05:44:30;;;;;;;8.75;8.15;;;;;;;;;;5023597;28;20041;-75
2023/01/07 05:46:56;;;;;;;7.78;7.28;;;;;;;;;;5017082;28;20317;-75
2023/01/07 05:49:21;;;;;;;7.43;6.82;;;;;;;;;;5011020;28;20609;-75
2023/01/07 05:51:47;;;;;;;7.55;7.05;;;;;;;;;;5009491;28;20081;-75
2023/01/07 05:54:12;;;;;;;7.70;7.20;;;;;;;;;;5013148;28;20037;-75
2023/01/07 05:56:38;;;;;;;7.03;6.53;;;;;;;;;;5018301;28;20067;-75
2023/01/07 05:59:03;;;;;;;7.38;6.90;;;;;;;;;;5011290;28;20037;-75
2023/01/07 06:01:29;;;;;;;7.72;7.22;;;;;;;;;;5015417;28;20485;-75
2023/01/07 06:03:55;;;;;;;7.47;6.97;;;;;;;;;;5015163;28;20055;-74
2023/01/07 06:06:20;;;;;;;7.35;6.95;;;;;;;;;;5015656;28;20029;-75
2023/01/07 06:08:46;;;;;;;7.35;6.88;;;;;;;;;;5012011;28;20080;-74
2023/01/07 06:11:11;;;;;;;8.10;7.50;;;;;;;;;;5018060;28;20037;-75
2023/01/07 06:13:37;;;;;;;7.38;6.88;;;;;;;;;;5018222;28;20029;-75
2023/01/07 06:16:06;;;;;;;7.60;7.07;;;;;;;;;;5013843;28;20500;-75
2023/01/07 06:18:32;;;;;;;8.15;7.55;;;;;;;;;;5022606;28;20404;-75
2023/01/07 06:20:57;;;;;;;8.00;7.50;;;;;;;;;;5015137;28;20124;-75
2023/01/07 06:23:23;;;;;;;8.43;7.70;;;;;;;;;;5020834;28;20113;-75
2023/01/07 06:25:49;;;;;;;8.02;7.53;;;;;;;;;;5012438;28;20040;-75
2023/01/07 06:28:14;;;;;;;7.65;7.15;;;;;;;;;;5017369;28;20113;-75
2023/01/07 06:30:40;;;;;;;8.57;7.88;;;;;;;;;;5017888;28;20054;-74
2023/01/07 06:33:06;;;;;;;8.80;8.00;;;;;;;;;;5011789;28;20048;-74
2023/01/07 06:35:32;;;;;;;8.07;7.47;;;;;;;;;;5013184;28;20042;-75
2023/01/07 06:37:59;;;;;;;8.50;7.90;;;;;;;;;;5019964;28;20031;-74
2023/01/07 06:40:25;;;;;;;8.10;7.40;;;;;;;;;;5021639;28;20044;-74
2023/01/07 06:42:51;;;;;;;7.68;7.07;;;;;;;;;;5012621;28;20038;-75
2023/01/07 06:45:17;;;;;;;7.88;7.28;;;;;;;;;;5016344;28;20508;-74
2023/01/07 06:47:42;;;;;;;7.53;7.00;;;;;;;;;;5019609;28;20500;-74
2023/01/07 06:50:08;;;;;;;7.55;6.95;;;;;;;;;;5022743;28;20040;-74
2023/01/07 06:52:34;;;;;;;7.40;6.75;;;;;;;;;;5015759;28;20489;-75
2023/01/07 06:55:00;;;;;;;7.50;7.00;;;;;;;;;;5016763;28;20030;-75
2023/01/07 06:57:25;;;;;;;7.35;6.85;;;;;;;;;;5021736;28;20096;-74
2023/01/07 06:59:51;;;;;;;7.13;6.72;;;;;;;;;;5025861;28;20040;-77
2023/01/07 07:02:19;;;;;;;6.80;6.40;;;;;;;;;;5029528;28;20043;-77
2023/01/07 07:04:45;;;;;;;7.57;7.07;;;;;;;;;;5048119;28;20522;-77
2023/01/07 07:07:10;;;;;;;7.50;7.00;;;;;;;;;;5048018;28;20026;-77
2023/01/07 07:09:36;;;;;;;7.82;7.32;;;;;;;;;;5031171;28;20053;-77
2023/01/07 07:12:01;;;;;;;7.00;6.60;;;;;;;;;;5014771;28;20034;-77
2023/01/07 07:14:27;;;;;;;7.60;7.00;;;;;;;;;;5026917;28;20045;-77
2023/01/07 07:16:52;;;;;;;7.15;6.75;;;;;;;;;;5018998;28;20034;-76
2023/01/07 07:19:18;;;;;;;7.30;6.90;;;;;;;;;;5016057;28;20041;-77
2023/01/07 07:21:43;;;;;;;7.32;6.80;;;;;;;;;;5020304;28;20104;-77
2023/01/07 07:24:09;;;;;;;7.47;6.97;;;;;;;;;;5023051;28;20059;-77
2023/01/07 07:26:35;;;;;;;7.47;6.80;;;;;;;;;;5021098;28;20038;-77
2023/01/07 07:29:00;;;;;;;7.88;7.00;;;;;;;;;;5020508;28;20036;-77
2023/01/07 07:31:26;;;;;;;7.53;7.03;;;;;;;;;;5025253;28;20045;-77
2023/01/07 07:33:51;;;;;;;7.80;7.20;;;;;;;;;;5022448;28;20044;-77
2023/01/07 07:36:17;;;;;;;8.23;7.68;;;;;;;;;;5015002;28;20026;-77
2023/01/07 07:38:42;;;;;;;8.13;7.63;;;;;;;;;;5021151;28;20030;-77
2023/01/07 07:41:08;;;;;;;7.82;7.32;;;;;;;;;;5028182;28;20047;-77
2023/01/07 07:43:34;;;;;;;7.70;7.20;;;;;;;;;;5019296;28;20578;-77
2023/01/07 07:46:00;;;;;;;8.48;7.88;;;;;;;;;;5015800;28;20030;-77
2023/01/07 07:48:25;;;;;;;7.60;7.10;;;;;;;;;;5018281;28;20037;-77
2023/01/07 07:50:51;;;;;;;7.93;7.22;;;;;;;;;;5018053;28;20058;-77
2023/01/07 07:53:17;;;;;;;7.25;6.85;;;;;;;;;;5014705;28;20506;-77
2023/01/07 07:55:43;;;;;;;7.72;7.13;;;;;;;;;;5014984;28;20038;-77
2023/01/07 07:58:09;;;;;;;8.20;7.70;;;;;;;;;;5021364;28;20040;-77
2023/01/07 08:00:35;;;;;;;8.15;7.50;;;;;;;;;;5022664;28;20503;-77
2023/01/07 08:03:01;;;;;;;12.38;10.50;;;;;;;;;;5026177;28;20480;-78
2023/01/07 08:05:27;;;;;;;12.15;11.00;;;;;;;;;;5018057;28;20046;-77
2023/01/07 08:07:53;;;;;;;11.35;10.25;;;;;;;;;;5020631;28;20040;-77
2023/01/07 08:10:19;;;;;;;10.15;9.27;;;;;;;;;;5025529;28;20046;-77
2023/01/07 08:12:45;;;;;;;8.73;8.13;;;;;;;;;;5017640;28;20029;-77
2023/01/07 08:15:11;;;;;;;7.70;7.20;;;;;;;;;;5018479;28;20106;-77
2023/01/07 08:17:36;;;;;;;8.43;7.82;;;;;;;;;;5021532;28;20057;-77
2023/01/07 08:20:04;;;;;;;7.78;7.35;;;;;;;;;;5017267;28;20030;-77
2023/01/07 08:22:29;;;;;;;7.50;7.00;;;;;;;;;;5015769;28;20440;-77
2023/01/07 08:24:55;;;;;;;7.32;6.82;;;;;;;;;;5022237;28;20048;-77
2023/01/07 08:27:21;;;;;;;8.43;7.93;;;;;;;;;;5021441;28;20041;-76
2023/01/07 08:29:46;;;;;;;8.00;7.50;;;;;;;;;;5016273;28;20152;-77
2023/01/07 08:32:12;;;;;;;7.80;7.20;;;;;;;;;;5015772;28;20037;-77
2023/01/07 08:34:38;;;;;;;8.30;7.70;;;;;;;;;;5018715;28;20429;-77
2023/01/07 08:37:03;;;;;;;8.50;7.90;;;;;;;;;;5022272;28;20041;-77
2023/01/07 08:39:29;;;;;;;8.75;8.10;;;;;;;;;;5022724;28;20041;-78
2023/01/07 08:41:54;;;;;;;8.73;7.90;;;;;;;;;;5017992;28;20034;-78
2023/01/07 08:44:20;;;;;;;8.20;7.60;;;;;;;;;;5021194;28;20202;-78
2023/01/07 08:46:45;;;;;;;7.95;7.45;;;;;;;;;;5023179;28;20038;-78
2023/01/07 08:49:11;;;;;;;8.45;7.95;;;;;;;;;;5021958;28;20038;-78
2023/01/07 08:51:36;;;;;;;8.20;7.50;;;;;;;;;;5023343;28;20128;-78
2023/01/07 08:54:02;;;;;;;9.20;8.48;;;;;;;;;;5020850;28;20129;-78
2023/01/07 08:56:28;;;;;;;7.95;7.45;;;;;;;;;;5028290;28;20041;-79
2023/01/07 08:58:53;;;;;;;9.02;8.32;;;;;;;;;;5020796;28;20034;-78
2023/01/07 09:01:19;;;;;;;8.80;8.20;;;;;;;;;;5017339;28;20045;-78
2023/01/07 09:03:45;;;;;;;9.45;8.63;;;;;;;;;;5019787;28;20143;-78
2023/01/07 09:06:10;;;;;;;8.30;7.70;;;;;;;;;;5020166;28;21761;-78
2023/01/07 09:08:36;;;;;;;8.35;7.75;;;;;;;;;;5014597;28;20036;-78
2023/01/07 09:11:02;;;;;;;7.80;7.30;;;;;;;;;;5020881;28;20033;-78
2023/01/07 09:13:27;;;;;;;7.63;7.03;;;;;;;;;;5023201;28;20302;-78
2023/01/07 09:15:53;;;;;;;7.57;7.07;;;;;;;;;;5017380;28;20041;-78
2023/01/07 09:18:19;;;;;;;7.80;7.30;;;;;;;;;;5021641;28;21090;-78
2023/01/07 09:20:45;;;;;;;8.27;7.68;;;;;;;;;;5027073;28;20033;-78
2023/01/07 09:23:10;;;;;;;8.05;7.55;;;;;;;;;;5024490;28;20121;-78
2023/01/07 09:25:36;;;;;;;7.53;7.03;;;;;;;;;;5015150;28;20053;-78
2023/01/07 09:28:01;;;;;;;7.07;6.57;;;;;;;;;;5022721;28;20035;-78
2023/01/07 09:30:27;;;;;;;9.02;8.32;;;;;;;;;;5027776;28;20091;-78
2023/01/07 09:32:53;;;;;;;8.57;7.88;;;;;;;;;;5017117;28;20470;-78
2023/01/07 09:35:18;;;;;;;8.25;7.65;;;;;;;;;;5019393;28;20109;-78
2023/01/07 09:37:44;;;;;;;8.20;7.50;;;;;;;;;;5022049;28;20037;-78
2023/01/07 09:40:33;;;;;;;9.75;8.85;;;;;;;;;;5019469;28;20034;-78
2023/01/07 09:43:26;;;;;;;8.60;7.90;;;;;;;;;;5021394;28;20044;-78
2023/01/07 09:45:54;;;;;;;10.18;9.38;;;;;;;;;;5022760;28;20030;-78
2023/01/07 09:48:28;;;;;;;9.27;8.57;;;;;;;;;;5023775;28;21606;-78
2023/01/07 09:51:02;;;;;;;9.40;8.65;;;;;;;;;;5021691;28;20033;-78
2023/01/07 09:53:45;;;;;;;10.00;9.20;;;;;;;;;;5018916;28;20572;-78
2023/01/07 09:56:21;;;;;;;10.30;9.40;;;;;;;;;;5014327;28;20030;-77
2023/01/07 09:58:47;;;;;;;10.95;9.77;;;;;;;;;;5021509;28;20187;-79
2023/01/07 10:01:19;;;;;;;10.85;9.85;;;;;;;;;;5021761;28;20072;-79
2023/01/07 10:04:00;;;;;;;9.57;8.77;;;;;;;;;;5022833;28;20061;-79
2023/01/07 10:06:50;;;;;;;10.05;9.00;;;;;;;;;;5023555;28;20041;-79
2023/01/07 10:09:37;;;;;;;9.18;8.48;;;;;;;;;;5022501;28;20060;-79
2023/01/07 10:12:22;;;;;;;9.27;8.57;;;;;;;;;;5021000;28;20041;-78
2023/01/07 10:15:12;;;;;;;8.80;8.20;;;;;;;;;;5024477;28;20120;-78
2023/01/07 10:17:57;;;;;;;9.57;8.88;;;;;;;;;;5021786;28;20034;-78
2023/01/07 10:20:44;;;;;;;9.98;9.23;;;;;;;;;;5018133;28;20038;-78
2023/01/07 10:23:13;;;;;;;12.73;11.32;;;;;;;;;;5021786;28;20034;-78
2023/01/07 10:25:44;;;;;;;9.30;8.65;;;;;;;;;;5023583;28;20068;-78
2023/01/07 10:28:33;;;;;;;9.43;8.63;;;;;;;;;;5023877;28;20085;-78
2023/01/07 10:30:59;;;;;;;;;;;;;;;;;;5016745;28;20046;-78
2023/01/07 10:33:28;;;;;;;9.40;8.70;;;;;;;;;;5024350;28;19917;-78
2023/01/07 10:36:00;;;;;;;;;;;;;;;;;;5025812;28;20056;-78
2023/01/07 10:38:28;;;;;;;9.60;8.90;;;;;;;;;;5020204;28;19921;-77
2023/01/07 10:41:00;;;;;;;9.88;9.07;;;;;;;;;;5025760;28;20046;-77
2023/01/07 10:43:42;;;;;;;10.00;9.20;;;;;;;;;;5028482;28;20038;-77
2023/01/07 10:46:45;;;;;;;10.20;9.40;;;;;;;;;;5019800;28;20026;-77
2023/01/07 10:49:27;;;;;;;9.65;8.88;;;;;;;;;;5021042;28;20105;-78
2023/01/07 10:52:21;;;;;;;9.70;8.90;;;;;;;;;;5024829;28;20527;-77
2023/01/07 10:54:54;;;;;;;9.93;9.20;;;;;;;;;;5018572;28;20754;-77
2023/01/07 10:57:23;;;;;;;10.75;9.75;;;;;;;;;;5020351;28;20485;-77
2023/01/07 10:59:55;;;;;;;10.43;9.63;;;;;;;;;;5023735;28;20072;-77
2023/01/07 11:02:25;;;;;;;9.77;9.05;;;;;;;;;;5023683;28;20044;-77
2023/01/07 11:04:54;;;;;;;9.43;8.73;;;;;;;;;;5016620;28;20037;-78
2023/01/07 11:07:32;;;;;;;9.48;8.77;;;;;;;;;;5015380;28;20068;-77
2023/01/07 11:10:03;;;;;;;9.60;8.90;;;;;;;;;;5022229;28;20042;-77
2023/01/07 11:12:37;;;;;;;9.45;8.73;;;;;;;;;;5004282;28;20100;-77
2023/01/07 11:15:38;;;;;;;9.98;9.27;;;;;;;;;;5014160;28;20037;-77
2023/01/07 11:18:12;;;;;;;9.23;8.52;;;;;;;;;;5020872;28;20091;-77
2023/01/07 11:20:49;;;;;;;9.07;8.38;;;;;;;;;;5020116;28;20510;-77
2023/01/07 11:23:37;;;;;;;10.13;9.32;;;;;;;;;;5017924;28;20060;-78
2023/01/07 11:26:12;;;;;;;9.02;8.32;;;;;;;;;;5019922;28;20084;-77
2023/01/07 11:28:51;;;;;;;9.45;8.70;;;;;;;;;;5023344;28;20676;-78
2023/01/07 11:31:18;;;;;;;;;;;;;;;;;;5018452;28;20049;-78
2023/01/07 11:33:51;;;;;;;;;;;;;;;;;;5016781;28;19913;-77
2023/01/07 11:36:17;;;;;;;;;;;;;;;;;;5019371;28;19944;-78
2023/01/07 11:38:43;;;;;;;;;;;;;;;;;;5022364;28;19960;-77
2023/01/07 11:41:19;;;;;;;;;;;;;;;;;;5017766;28;19913;-77
2023/01/07 11:43:47;;;;;;;;;;;;;;;;;;5023269;28;19913;-77
2023/01/07 11:46:13;;;;;;;;;;;;;;;;;;5041735;28;19905;-77
2023/01/07 11:48:41;;;;;;;;;;;;;;;;;;5046990;28;19983;-78
2023/01/07 11:51:11;;;;;;;;;;;;;;;;;;5031466;28;19994;-77
2023/01/07 11:53:37;;;;;;;;;;;;;;;;;;5021372;28;19920;-77
2023/01/07 11:56:13;;;;;;;;;;;;;;;;;;5020035;28;19959;-77
2023/01/07 11:58:41;;;;;;;;;;;;;;;;;;5027231;28;19960;-78
2023/01/07 12:01:06;;;;;;;;;;;;;;;;;;5020952;28;19921;-78
2023/01/07 12:03:32;;;;;;;;;;;;;;;;;;5024127;28;20305;-79
2023/01/07 12:06:01;;;;;;;;;;;;;;;;;;5024141;28;19921;-79
2023/01/07 12:08:26;;;;;;;;;;;;;;;;;;5022831;28;20280;-78
2023/01/07 12:10:56;;;;;;;;;;;;;;;;;;5022665;28;19912;-79
2023/01/07 12:13:24;;;;;;;;;;;;;;;;;;5024475;28;20039;-78
2023/01/07 12:15:56;;;;;;;;;;;;;;;;;;5020174;28;19972;-78
2023/01/07 12:18:28;;;;;;;;;;;;;;;;;;5023666;28;19940;-78
2023/01/07 12:21:12;;;;;;;;;;;;;;;;;;5020452;28;19921;-78
2023/01/07 12:23:47;;;;;;;;;;;;;;;;;;5019911;28;20026;-78
2023/01/07 12:26:15;;;;;;;;;;;;;;;;;;5021354;28;19960;-78
2023/01/07 12:28:59;;;;;;;;;;;;;;;;;;5027008;28;21102;-78
2023/01/07 12:31:31;;;;;;;;;;;;;;;;;;5023014;28;19960;-78
2023/01/07 12:34:09;;;;;;;;;;;;;;;;;;5018056;28;20522;-78
2023/01/07 12:37:07;;;;;;;;;;;;;;;;;;5023827;28;19958;-78
2023/01/07 12:39:43;;;;;;;;;;;;;;;;;;5002618;28;19948;-78
2023/01/07 12:42:15;;;;;;;;;;;;;;;;;;5016594;28;19915;-78
2023/01/07 12:44:46;;;;;;;;;;;;;;;;;;5023283;28;19959;-78
2023/01/07 12:47:14;;;;;;;;;;;;;;;;;;5023179;28;19909;-79
2023/01/07 12:50:01;;;;;;;;;;;;;;;;;;5012965;28;19933;-78
2023/01/07 12:52:33;;;;;;;;;;;;;;;;;;5018108;28;19913;-78
2023/01/07 12:55:02;;;;;;;;;;;;;;;;;;5021771;28;20363;-77
2023/01/07 12:57:29;;;;;;;;;;;;;;;;;;5017650;28;19924;-78
2023/01/07 13:00:12;;;;;;;;;;;;;;;;;;5021600;28;19942;-78
2023/01/07 13:02:47;;;;;;;;;;;;;;;;;;5016553;28;20442;-78
2023/01/07 13:05:27;;;;;;;;;;;;;;;;;;5021747;28;19952;-78
2023/01/07 13:08:15;;;;;;;;;;;;;;;;;;5019286;28;19929;-79
2023/01/07 13:10:43;;;;;;;;;;;;;;;;;;5017280;28;19913;-78
2023/01/07 13:13:19;;;;;;;;;;;;;;;;;;5022338;28;19913;-79
2023/01/07 13:15:46;;;;;;;;;;;;;;;;;;5024599;28;19967;-79
2023/01/07 13:18:14;;;;;;;;;;;;;;;;;;5024622;28;19913;-78
2023/01/07 13:20:47;;;;;;;;;;;;;;;;;;5018146;28;20654;-78
2023/01/07 13:23:21;;;;;;;;;;;;;;;;;;5019102;28;20319;-78
2023/01/07 13:26:00;;;;;;;;;;;;;;;;;;5020996;28;19920;-79
2023/01/07 13:28:41;;;;;;;;;;;;;;;;;;5021393;28;19924;-78
2023/01/07 13:31:25;;;;;;;;;;;;;;;;;;5024380;28;20067;-78
2023/01/07 13:33:53;;;;;;;;;;;;;;;;;;5027186;28;19917;-78
2023/01/07 13:36:23;;;;;;;;;;;;;;;;;;5029352;28;19913;-77
2023/01/07 13:38:56;;;;;;;;;;;;;;;;;;5022072;28;19919;-78
2023/01/07 13:41:36;;;;;;;;;;;;;;;;;;5017490;28;20636;-78
2023/01/07 13:44:28;;;;;;;;;;;;;;;;;;5034520;28;19917;-79
2023/01/07 13:46:54;;;;;;;;;;;;;;;;;;5008841;28;19924;-79
2023/01/07 13:49:25;;;;;;;;;;;;;;;;;;5023124;28;19921;-78
2023/01/07 13:51:51;;;;;;;;;;;;;;;;;;5021717;28;20008;-79
2023/01/07 13:54:35;;;;;;;;;;;;;;;;;;5014817;28;20007;-78
2023/01/07 13:57:20;;;;;;;;;;;;;;;;;;5018988;28;19944;-78
2023/01/07 13:59:47;;;;;;;;;;;;;;;;;;5027983;28;20011;-79
2023/01/07 14:02:23;;;;;;;;;;;;;;;;;;5020256;28;20014;-79
2023/01/07 14:05:07;;;;;;;;;;;;;;;;;;5020123;28;19940;-78
2023/01/07 14:07:42;;;;;;;;;;;;;;;;;;5029326;28;19947;-78
2023/01/07 14:10:16;;;;;;;;;;;;;;;;;;5023877;28;19921;-78
2023/01/07 14:12:53;;;;;;;;;;;;;;;;;;5024243;28;19948;-78
2023/01/07 14:15:36;;;;;;;;;;;;;;;;;;5021382;28;19919;-79
2023/01/07 14:18:14;;;;;;;;;;;;;;;;;;5039306;28;19916;-78
2023/01/07 14:20:54;;;;;;;;;;;;;;;;;;5026782;28;19920;-78
2023/01/07 14:23:26;;;;;;;;;;;;;;;;;;5031723;28;19913;-77
2023/01/07 14:25:54;;;;;;;;;;;;;;;;;;5026376;28;20021;-78
2023/01/07 14:28:30;;;;;;;;;;;;;;;;;;5029736;28;19948;-78
2023/01/07 14:30:57;;;;;;;;;;;;;;;;;;5019594;28;19928;-78
2023/01/07 14:33:27;;;;;;;;;;;;;;;;;;5023919;28;19913;-78
2023/01/07 14:35:52;;;;;;;;;;;;;;;;;;5032575;28;19920;-79
2023/01/07 14:38:30;;;;;;;;;;;;;;;;;;5029953;28;19960;-78
2023/01/07 14:41:02;;;;;;;;;;;;;;;;;;5035265;28;20414;-78
2023/01/07 14:43:39;;;;;;;;;;;;;;;;;;5037764;28;19952;-78
2023/01/07 14:46:23;;;;;;;;;;;;;;;;;;5031622;28;19966;-79
2023/01/07 14:49:01;;;;;;;;;;;;;;;;;;5030346;28;19916;-79
2023/01/07 14:51:45;;;;;;;;;;;;;;;;;;5021670;28;19917;-79
2023/01/07 14:54:20;;;;;;;;;;;;;;;;;;5018573;28;19921;-79
2023/01/07 14:57:00;;;;;;;;;;;;;;;;;;5025865;28;19928;-78
2023/01/07 14:59:45;;;;;;;;;;;;;;;;;;5031312;28;19935;-79
2023/01/07 15:02:26;;;;;;;;;;;;;;;;;;5023055;28;19925;-78
2023/01/07 15:05:10;;;;;;;;;;;;;;;;;;5022566;28;19967;-78
2023/01/07 15:07:37;;;;;;;;;;;;;;;;;;5024145;28;20000;-79
2023/01/07 15:16:00;;;;;;;;;;;;;;;;;;5022460;28;19940;-79
2023/01/07 15:18:26;;;;;;;;;;;;;;;;;;5022438;28;19969;-79
2023/01/07 15:21:11;;;;;;;;;;;;;;;;;;5022595;28;20268;-78
2023/01/07 15:23:36;;;;;;;;;;;;;;;;;;5028639;28;20392;-78
2023/01/07 15:26:05;;;;;;;;;;;;;;;;;;5027617;28;19948;-78
2023/01/07 15:28:49;;;;;;;;;;;;;;;;;;5022691;28;19917;-78
2023/01/07 15:31:20;;;;;;;;;;;;;;;;;;5025728;28;19952;-78
2023/01/07 15:33:46;;;;;;;;;;;;;;;;;;5025228;28;19917;-78
2023/01/07 15:36:12;;;;;;;;;;;;;;;;;;5023715;28;19918;-78
2023/01/07 15:38:44;;;;;;;;;;;;;;;;;;5025666;28;19921;-79
2023/01/07 15:41:22;;;;;;;;;;;;;;;;;;5024541;28;19927;-79
2023/01/07 15:43:48;;;;;;;;;;;;;;;;;;5022247;28;19928;-77